METAR AND TAF INFORMATION
METAR FOR UASP
ADDS - METARS form results

(0151 UTC 18 November 2019)
Data provider http://aviationweather.gov/metar/data/
 
METAR text: UASP 180130Z 25006MPS 1800 R21/P2000 SHSN OVC007CB M02/M03 Q1016 R21/590445 NOSIG RMK OBST OBSC QFE750/1001
Conditions at: UASP (PAVLODAR , KZ) observed 0130 UTC 18 November 2019
Temperature: -2.0°C (28°F)
Dewpoint: -3.0°C (27°F) [RH = 93%]
Pressure (altimeter): 30.00 inches Hg (1016.0 mb)
Winds: from the WSW (250 degrees) at 14 MPH (12 knots; 6.2 m/s)
Visibility: 1.12 miles (1.80 km)
Ceiling: 700 feet AGL
Clouds: overcast cloud deck at 700 feet AGL
Weather: SHSN  (snow showers)

METAR text: UASP 180100Z 25006MPS 2100 SHSN OVC007CB M02/M03 Q1016 R21/590250 NOSIG RMK OBST OBSC QFE750/1001
Conditions at: UASP (PAVLODAR , KZ) observed 0100 UTC 18 November 2019
Temperature: -2.0°C (28°F)
Dewpoint: -3.0°C (27°F) [RH = 93%]
Pressure (altimeter): 30.00 inches Hg (1016.0 mb)
Winds: from the WSW (250 degrees) at 14 MPH (12 knots; 6.2 m/s)
Visibility: 1.30 miles (2.09 km)
Ceiling: 700 feet AGL
Clouds: overcast cloud deck at 700 feet AGL
Weather: SHSN  (snow showers)

Forecast for: UASP (PAVLODAR , KZ)
Text: TAF UASP 172300Z 1800/1809 24008MPS 3100 -SHSN OVC007CB
Forecast period: 0000 to 0900 UTC 18 November 2019
Forecast type: FROM: standard forecast or significant change
Winds: from the WSW (240 degrees) at 18 MPH (16 knots; 8.2 m/s)
Visibility: 1.93 miles (3.11 km)
Ceiling: 700 feet AGL
Clouds: overcast cloud deck at 700 feet AGL
Weather: -SHSN  (light snow showers)
Text: TEMPO 1800/1803 26015MPS 0400 +SHSNRA BKN003CB
Forecast period: 0000 to 0300 UTC 18 November 2019
Forecast type: TEMPORARY: The following changes expected for less than half the time period
Winds: from the W (260 degrees) at 33 MPH (29 knots; 14.9 m/s)
Visibility: 0.25 miles (0.40 km)
Ceiling: 300 feet AGL
Clouds: broken clouds at 300 feet AGL
Weather: +SHSN +SHRA  (heavy snow showers, heavy rain showers)
Text: TEMPO 1803/1809 26015MPS 1000 SHSNRA BKN005CB
Forecast period: 0300 to 0900 UTC 18 November 2019
Forecast type: TEMPORARY: The following changes expected for less than half the time period
Winds: from the W (260 degrees) at 33 MPH (29 knots; 14.9 m/s)
Visibility: 0.62 miles (1.00 km)
Ceiling: 500 feet AGL
Clouds: broken clouds at 500 feet AGL
Weather: SHSN SHRA  (snow showers, rain showers)

 AIRPORT MAP

 RUNWAY INFORMATION

 AIRPORT FREQUENCIES
Type TWR Name TWR Frequency 119.8 MHZ

 AIRPORT NEAR NAVIGATION AIDS
Type NDB Name Pavlodar Frequency 440 KHZ
Type NDB Name Pavlodar Frequency 440 KHZ



2018 Air Astana Virtual Airline